Terminal Aerodrome Forecast
Issued by NWS

Home | Current Version | Previous Version | Text Only | Print | Product List | Glossary On
Versions: 1 2 3 4 5 6 7 8 9 10 11 12 13 14 15
000
FTUS41 KCAR 172335
TAFPQI
TAF
KPQI 172335Z 1800/1824 33010KT P6SM VCSH BKN050
      TEMPO 1800/1801 -SHRA
     FM180100 33010KT P6SM BKN050
     FM180400 32008KT P6SM SCT060
     FM181800 36006KT P6SM BKN050
     FM182000 36008KT P6SM VCSH BKN050
      AMD LTD TO CLD VIS AND WIND=

USA.gov is the U.S. government's official web portal to all federal, state and local government web resources and services.